Time;durP1;ratioP1;P1;durP2;ratioP2;P2;SDS_P1;SDS_P2;PMS_P1;PMS_P2;Temp;Humidity;BMP_temperature;BMP_pressure;BME280_temperature;BME280_humidity;BME280_pressure;Samples;Min_cycle;Max_cycle;Signal;HPM_P1;HPM_P2
2023/04/22 00:02:13;;;;;;;5.03;4.28;;;10.40;99.90;;;;;;5043654;28;20028;-34
2023/04/22 00:04:40;;;;;;;5.43;3.80;;;10.40;99.90;;;;;;5042312;28;20888;-34
2023/04/22 00:07:06;;;;;;;4.78;4.28;;;10.40;99.90;;;;;;5042423;28;20025;-33
2023/04/22 00:09:31;;;;;;;6.38;4.45;;;10.30;99.90;;;;;;5042551;28;20421;-34
2023/04/22 00:11:57;;;;;;;5.15;4.38;;;10.30;99.90;;;;;;5042255;28;20029;-34
2023/04/22 00:14:23;;;;;;;4.72;4.22;;;10.20;99.90;;;;;;5042921;28;20027;-34
2023/04/22 00:16:49;;;;;;;4.53;4.13;;;10.20;99.90;;;;;;5043055;28;20025;-33
2023/04/22 00:19:15;;;;;;;5.55;4.50;;;10.20;99.90;;;;;;5043444;28;20116;-34
2023/04/22 00:21:40;;;;;;;5.97;4.68;;;10.10;99.90;;;;;;5042900;28;20086;-34
2023/04/22 00:24:06;;;;;;;5.40;4.75;;;10.10;99.90;;;;;;5042159;28;20462;-33
2023/04/22 00:26:32;;;;;;;5.00;4.50;;;10.10;99.90;;;;;;5041940;28;20079;-33
2023/04/22 00:28:57;;;;;;;5.90;4.90;;;10.10;99.90;;;;;;5042169;28;20032;-33
2023/04/22 00:31:23;;;;;;;5.78;5.00;;;10.00;99.90;;;;;;5041781;28;20181;-34
2023/04/22 00:33:49;;;;;;;5.72;5.05;;;10.00;99.90;;;;;;5042540;28;20469;-33
2023/04/22 00:36:14;;;;;;;6.47;5.30;;;9.90;99.90;;;;;;5042386;28;20598;-34
2023/04/22 00:38:46;;;;;;;7.50;5.30;;;10.00;99.90;;;;;;5041658;28;20420;-34
2023/04/22 00:41:12;;;;;;;9.10;5.70;;;10.00;99.90;;;;;;5042729;28;20021;-33
2023/04/22 00:43:37;;;;;;;6.13;5.50;;;9.90;99.90;;;;;;5041465;28;20027;-34
2023/04/22 00:46:03;;;;;;;7.97;5.40;;;9.90;99.90;;;;;;5041424;28;20040;-34
2023/04/22 00:48:29;;;;;;;5.95;5.05;;;9.90;99.90;;;;;;5042370;28;20032;-34
2023/04/22 00:50:54;;;;;;;6.78;5.85;;;9.80;99.90;;;;;;5041593;28;20044;-34
2023/04/22 00:53:20;;;;;;;6.00;5.40;;;9.90;99.90;;;;;;5040950;28;20048;-34
2023/04/22 00:55:45;;;;;;;6.13;5.53;;;9.80;99.90;;;;;;5040924;28;20032;-33
2023/04/22 00:58:11;;;;;;;5.38;4.88;;;9.80;99.90;;;;;;5041496;28;20042;-35
2023/04/22 01:00:37;;;;;;;6.20;4.95;;;9.80;99.90;;;;;;5040573;28;20076;-36
2023/04/22 01:03:05;;;;;;;6.45;5.25;;;9.70;99.90;;;;;;5040574;28;20025;-35
2023/04/22 01:05:34;;;;;;;5.88;4.78;;;9.70;99.90;;;;;;5040135;28;20457;-34
2023/04/22 01:08:00;;;;;;;5.90;5.30;;;9.70;99.90;;;;;;5040727;28;20112;-34
2023/04/22 01:10:26;;;;;;;5.78;4.85;;;9.70;99.90;;;;;;5040650;28;20029;-33
2023/04/22 01:12:52;;;;;;;8.27;5.50;;;9.70;99.90;;;;;;5041081;28;20547;-34
2023/04/22 01:15:17;;;;;;;5.97;4.82;;;9.70;99.90;;;;;;5041930;28;20021;-35
2023/04/22 01:17:44;;;;;;;5.93;4.80;;;9.70;99.90;;;;;;5041469;28;20024;-34
2023/04/22 01:20:11;;;;;;;5.93;5.32;;;9.70;99.90;;;;;;5040775;28;20074;-34
2023/04/22 01:22:40;;;;;;;6.18;4.95;;;9.70;99.90;;;;;;5040225;28;20439;-34
2023/04/22 01:25:07;;;;;;;5.47;4.65;;;9.70;99.90;;;;;;5040769;28;20017;-34
2023/04/22 01:27:34;;;;;;;6.18;5.40;;;9.60;99.90;;;;;;5039516;28;20810;-34
2023/04/22 01:29:59;;;;;;;6.57;5.68;;;9.60;99.90;;;;;;5041231;28;20025;-34
2023/04/22 01:32:26;;;;;;;5.60;4.85;;;9.60;99.90;;;;;;5040928;28;20032;-34
2023/04/22 01:34:51;;;;;;;6.10;5.47;;;9.60;99.90;;;;;;5040628;28;20120;-34
2023/04/22 01:37:17;;;;;;;6.68;5.65;;;9.60;99.90;;;;;;5041244;28;20029;-36
2023/04/22 01:39:43;;;;;;;6.20;5.50;;;9.60;99.90;;;;;;5040705;28;20017;-34
2023/04/22 01:42:09;;;;;;;6.32;5.55;;;9.50;99.90;;;;;;5040048;28;20025;-34
2023/04/22 01:44:35;;;;;;;7.22;6.30;;;9.50;99.90;;;;;;5040861;28;20063;-33
2023/04/22 01:47:00;;;;;;;6.80;6.10;;;9.50;99.90;;;;;;5040895;28;20827;-34
2023/04/22 01:49:26;;;;;;;6.32;5.72;;;9.50;99.90;;;;;;5039810;28;20068;-35
2023/04/22 01:51:51;;;;;;;6.70;5.95;;;9.50;99.90;;;;;;5041030;28;20087;-33
2023/04/22 01:54:17;;;;;;;7.85;6.63;;;9.50;99.90;;;;;;5041182;28;20377;-34
2023/04/22 01:56:52;;;;;;;6.85;6.15;;;9.50;99.90;;;;;;5040001;28;20025;-34
2023/04/22 01:59:19;;;;;;;8.40;6.00;;;9.50;99.90;;;;;;5041325;28;20031;-35
2023/04/22 02:01:44;;;;;;;6.65;5.95;;;9.50;99.90;;;;;;5040658;28;20025;-33
2023/04/22 02:04:10;;;;;;;7.47;6.22;;;9.50;99.90;;;;;;5040614;28;20024;-33
2023/04/22 02:06:35;;;;;;;6.93;6.22;;;9.50;99.90;;;;;;5041089;28;20814;-33
2023/04/22 02:09:01;;;;;;;7.60;6.60;;;9.50;99.90;;;;;;5039283;28;20618;-33
2023/04/22 02:11:27;;;;;;;8.00;6.85;;;9.40;99.90;;;;;;5040215;28;20082;-34
2023/04/22 02:13:52;;;;;;;8.00;6.75;;;9.40;99.90;;;;;;5039993;28;20021;-34
2023/04/22 02:16:18;;;;;;;9.13;7.35;;;9.40;99.90;;;;;;5039744;28;20071;-33
2023/04/22 02:18:43;;;;;;;8.95;7.45;;;9.40;99.90;;;;;;5039949;28;20027;-33
2023/04/22 02:21:09;;;;;;;8.68;7.03;;;9.40;99.90;;;;;;5040253;28;20058;-34
2023/04/22 02:23:36;;;;;;;8.48;7.40;;;9.50;99.90;;;;;;5039909;28;20029;-34
2023/04/22 02:26:02;;;;;;;8.18;7.25;;;9.50;99.90;;;;;;5040426;28;20041;-34
2023/04/22 02:28:28;;;;;;;8.30;7.43;;;9.50;99.90;;;;;;5039976;28;20087;-34
2023/04/22 02:30:53;;;;;;;9.60;8.30;;;9.50;99.90;;;;;;5039589;28;20032;-33
2023/04/22 02:33:19;;;;;;;9.25;7.82;;;9.50;99.90;;;;;;5041398;28;20114;-33
2023/04/22 02:35:45;;;;;;;8.48;7.40;;;9.50;99.90;;;;;;5039866;28;20060;-34
2023/04/22 02:38:11;;;;;;;9.38;8.00;;;9.60;99.90;;;;;;5040501;28;20105;-35
2023/04/22 02:40:36;;;;;;;9.88;8.32;;;9.50;99.90;;;;;;5041157;28;20025;-34
2023/04/22 02:43:02;;;;;;;9.65;8.27;;;9.60;99.90;;;;;;5039766;28;20033;-34
2023/04/22 02:45:27;;;;;;;9.27;8.07;;;9.60;99.90;;;;;;5039932;28;20017;-33
2023/04/22 02:47:53;;;;;;;9.30;8.35;;;9.60;99.90;;;;;;5040590;28;20021;-34
2023/04/22 02:50:18;;;;;;;10.00;8.88;;;9.60;99.90;;;;;;5039360;28;20162;-33
2023/04/22 02:52:44;;;;;;;10.20;8.77;;;9.60;99.90;;;;;;5040036;28;20079;-34
2023/04/22 02:55:10;;;;;;;9.30;8.20;;;9.60;99.90;;;;;;5040319;28;20094;-34
2023/04/22 02:57:35;;;;;;;8.93;8.07;;;9.60;99.90;;;;;;5039841;28;20082;-34
2023/04/22 03:00:01;;;;;;;8.75;7.85;;;9.60;99.90;;;;;;5039453;28;20021;-34
2023/04/22 03:02:26;;;;;;;8.13;7.30;;;9.70;99.90;;;;;;5040447;28;20028;-34
2023/04/22 03:04:53;;;;;;;11.02;9.07;;;9.70;99.90;;;;;;5040368;28;20099;-34
2023/04/22 03:07:19;;;;;;;10.50;9.38;;;9.70;99.90;;;;;;5042138;28;20041;-34
2023/04/22 03:09:47;;;;;;;9.93;8.93;;;9.70;99.90;;;;;;5043602;28;20750;-34
2023/04/22 03:12:13;;;;;;;9.85;8.18;;;9.80;99.90;;;;;;5043823;28;20049;-33
2023/04/22 03:14:39;;;;;;;9.60;8.63;;;9.80;99.90;;;;;;5043095;28;20067;-35
2023/04/22 03:17:04;;;;;;;9.45;8.40;;;9.80;99.90;;;;;;5042849;28;20021;-34
2023/04/22 03:19:30;;;;;;;9.88;8.52;;;9.80;99.90;;;;;;5042416;28;20021;-40
2023/04/22 03:21:57;;;;;;;11.07;9.40;;;9.80;99.90;;;;;;5042422;28;20024;-33
2023/04/22 03:24:22;;;;;;;11.10;9.35;;;9.90;99.90;;;;;;5043653;28;20142;-34
2023/04/22 03:26:48;;;;;;;10.25;8.95;;;9.80;99.90;;;;;;5042206;28;20136;-33
2023/04/22 03:29:13;;;;;;;10.30;9.20;;;9.90;99.90;;;;;;5043414;28;20060;-34
2023/04/22 03:31:39;;;;;;;11.88;9.43;;;9.90;99.90;;;;;;5041986;28;20120;-33
2023/04/22 03:34:05;;;;;;;12.15;9.95;;;9.90;99.90;;;;;;5042845;28;20058;-34
2023/04/22 03:36:33;;;;;;;11.10;9.55;;;9.90;99.90;;;;;;5042477;28;20049;-35
2023/04/22 03:38:59;;;;;;;11.20;9.52;;;9.80;99.90;;;;;;5042128;28;20032;-33
2023/04/22 03:41:25;;;;;;;11.00;9.90;;;9.90;99.90;;;;;;5042439;28;20056;-33
2023/04/22 03:43:51;;;;;;;11.23;9.43;;;9.90;99.90;;;;;;5042230;28;20487;-33
2023/04/22 03:46:17;;;;;;;11.60;10.20;;;9.90;99.90;;;;;;5043304;28;20029;-33
2023/04/22 03:48:48;;;;;;;11.95;10.50;;;9.90;99.90;;;;;;5042231;28;20083;-34
2023/04/22 03:51:14;;;;;;;14.77;11.45;;;9.90;99.90;;;;;;5042826;28;20687;-34
2023/04/22 03:53:39;;;;;;;12.32;10.52;;;9.90;99.90;;;;;;5042460;28;20024;-34
2023/04/22 03:56:05;;;;;;;11.48;10.20;;;9.90;99.90;;;;;;5042182;28;20035;-34
2023/04/22 03:58:31;;;;;;;12.30;11.00;;;9.90;99.90;;;;;;5042753;28;20013;-33
2023/04/22 04:00:59;;;;;;;12.88;11.43;;;9.90;99.90;;;;;;5042531;28;20026;-33
2023/04/22 04:03:25;;;;;;;11.50;10.30;;;9.90;99.90;;;;;;5042505;28;20029;-32
2023/04/22 04:05:51;;;;;;;12.95;10.52;;;9.90;99.90;;;;;;5042330;28;20059;-35
2023/04/22 04:08:16;;;;;;;13.13;11.70;;;9.90;99.90;;;;;;5042735;28;20025;-35
2023/04/22 04:10:42;;;;;;;12.05;10.48;;;9.90;99.90;;;;;;5042066;28;20733;-34
2023/04/22 04:13:07;;;;;;;13.80;11.48;;;9.90;99.90;;;;;;5041955;28;20543;-33
2023/04/22 04:15:35;;;;;;;14.15;11.70;;;9.90;99.90;;;;;;5042752;28;20033;-34
2023/04/22 04:18:01;;;;;;;13.90;11.73;;;9.90;99.90;;;;;;5041373;28;20052;-34
2023/04/22 04:20:27;;;;;;;14.40;12.10;;;9.90;99.90;;;;;;5042615;28;20749;-34
2023/04/22 04:22:53;;;;;;;13.48;11.85;;;9.90;99.90;;;;;;5042073;28;20514;-34
2023/04/22 04:25:20;;;;;;;14.80;12.30;;;9.90;99.90;;;;;;5042468;28;20066;-33
2023/04/22 04:27:46;;;;;;;14.60;12.25;;;9.90;99.90;;;;;;5041340;28;20525;-33
2023/04/22 04:30:12;;;;;;;13.55;11.55;;;9.90;99.90;;;;;;5042121;28;20017;-33
2023/04/22 04:32:37;;;;;;;14.57;13.00;;;9.90;99.90;;;;;;5041177;28;20094;-34
2023/04/22 04:35:03;;;;;;;13.85;12.02;;;9.90;99.90;;;;;;5042163;28;20017;-33
2023/04/22 04:37:29;;;;;;;15.32;13.48;;;10.00;99.90;;;;;;5041820;28;20593;-33
2023/04/22 04:39:58;;;;;;;15.50;13.80;;;9.90;99.90;;;;;;5041052;28;20598;-33
2023/04/22 04:42:23;;;;;;;16.25;12.90;;;10.00;99.90;;;;;;5040576;28;20044;-33
2023/04/22 04:44:49;;;;;;;14.70;13.13;;;10.00;99.90;;;;;;5040435;28;20028;-35
2023/04/22 04:47:15;;;;;;;15.60;13.20;;;10.00;99.90;;;;;;5041270;28;20644;-34
2023/04/22 04:49:40;;;;;;;18.00;13.85;;;10.00;99.90;;;;;;5040887;28;20098;-34
2023/04/22 04:52:10;;;;;;;18.13;13.65;;;10.00;99.90;;;;;;5041341;28;20048;-33
2023/04/22 04:54:36;;;;;;;16.67;14.45;;;10.00;99.90;;;;;;5041046;28;20036;-34
2023/04/22 04:57:02;;;;;;;15.52;13.35;;;10.10;99.90;;;;;;5042366;28;20025;-33
2023/04/22 04:59:27;;;;;;;15.77;13.70;;;10.10;99.90;;;;;;5041058;28;20071;-33
2023/04/22 05:01:53;;;;;;;16.08;14.23;;;10.10;99.90;;;;;;5041302;28;20139;-34
2023/04/22 05:04:18;;;;;;;15.88;13.68;;;10.10;99.90;;;;;;5041550;28;20024;-34
2023/04/22 05:06:44;;;;;;;15.15;13.05;;;10.10;99.90;;;;;;5041001;28;20033;-34
2023/04/22 05:09:10;;;;;;;14.85;13.02;;;10.10;99.90;;;;;;5041966;28;20035;-39
2023/04/22 05:11:35;;;;;;;16.33;14.10;;;10.10;99.90;;;;;;5041570;28;20049;-34
2023/04/22 05:14:01;;;;;;;19.00;14.25;;;10.10;99.90;;;;;;5041166;28;20575;-34
2023/04/22 05:16:27;;;;;;;15.10;13.50;;;10.20;99.90;;;;;;5042077;28;20035;-35
2023/04/22 05:18:53;;;;;;;15.05;13.15;;;10.20;99.90;;;;;;5041383;28;20021;-35
2023/04/22 05:21:21;;;;;;;17.52;14.55;;;10.20;99.90;;;;;;5041168;28;20020;-33
2023/04/22 05:23:47;;;;;;;17.10;13.93;;;10.20;99.90;;;;;;5041462;28;20036;-34
2023/04/22 05:26:13;;;;;;;17.08;14.00;;;10.30;99.90;;;;;;5041513;28;20048;-34
2023/04/22 05:28:38;;;;;;;16.88;13.68;;;10.30;99.90;;;;;;5041296;28;20068;-34
2023/04/22 05:31:10;;;;;;;17.90;14.77;;;10.30;99.90;;;;;;5040294;28;20510;-34
2023/04/22 05:33:35;;;;;;;17.88;14.65;;;10.30;99.90;;;;;;5041179;28;20040;-34
2023/04/22 05:36:01;;;;;;;18.13;14.70;;;10.30;99.90;;;;;;5040754;28;20025;-34
2023/04/22 05:38:27;;;;;;;18.65;14.57;;;10.40;99.90;;;;;;5040956;28;20031;-32
2023/04/22 05:40:52;;;;;;;18.38;15.55;;;10.40;99.90;;;;;;5040666;28;20043;-33
2023/04/22 05:43:18;;;;;;;16.10;14.40;;;10.40;99.90;;;;;;5042034;28;20021;-33
2023/04/22 05:45:43;;;;;;;17.98;14.65;;;10.40;99.90;;;;;;5040607;28;20460;-34
2023/04/22 05:48:09;;;;;;;16.88;15.02;;;10.50;99.90;;;;;;5039772;28;20082;-34
2023/04/22 05:50:37;;;;;;;17.25;14.95;;;10.50;99.90;;;;;;5039550;28;20136;-35
2023/04/22 05:53:03;;;;;;;17.45;14.50;;;10.50;99.90;;;;;;5039634;28;20024;-35
2023/04/22 05:55:31;;;;;;;17.83;14.63;;;10.60;99.90;;;;;;5039550;28;20032;-35
2023/04/22 05:57:56;;;;;;;18.90;14.70;;;10.60;99.90;;;;;;5040202;28;20107;-34
2023/04/22 06:00:22;;;;;;;19.17;15.05;;;10.60;99.90;;;;;;5041379;28;20028;-34
2023/04/22 06:02:47;;;;;;;17.83;14.73;;;10.70;99.90;;;;;;5040226;28;20035;-35
2023/04/22 06:05:13;;;;;;;18.63;15.25;;;10.70;99.90;;;;;;5040953;28;20033;-34
2023/04/22 06:07:39;;;;;;;17.90;15.70;;;10.70;99.90;;;;;;5040518;28;20029;-34
2023/04/22 06:10:05;;;;;;;17.38;15.52;;;10.80;99.90;;;;;;5039918;28;20322;-34
2023/04/22 06:12:33;;;;;;;18.55;15.85;;;10.80;99.90;;;;;;5040605;28;20033;-34
2023/04/22 06:14:58;;;;;;;17.58;14.93;;;10.80;99.90;;;;;;5040068;28;20167;-35
2023/04/22 06:17:24;;;;;;;19.38;15.63;;;10.90;99.90;;;;;;5039567;28;20247;-34
2023/04/22 06:19:50;;;;;;;17.73;14.95;;;10.90;99.90;;;;;;5040107;28;20407;-34
2023/04/22 06:22:15;;;;;;;18.42;15.23;;;11.00;99.90;;;;;;5040171;28;20036;-35
2023/04/22 06:24:41;;;;;;;17.77;15.02;;;11.00;99.90;;;;;;5040421;28;20102;-34
2023/04/22 06:27:06;;;;;;;19.17;16.05;;;11.10;99.90;;;;;;5040447;28;20036;-35
2023/04/22 06:29:32;;;;;;;16.85;14.50;;;11.20;99.90;;;;;;5040496;28;20032;-34
2023/04/22 06:31:58;;;;;;;18.20;15.20;;;11.20;99.90;;;;;;5039353;28;20039;-34
2023/04/22 06:34:23;;;;;;;17.98;15.30;;;11.30;99.90;;;;;;5040728;28;20029;-34
2023/04/22 06:36:50;;;;;;;17.75;14.95;;;11.40;99.90;;;;;;5039049;28;20025;-36
2023/04/22 06:39:15;;;;;;;17.00;15.20;;;11.40;99.90;;;;;;5040198;28;20390;-34
2023/04/22 06:41:43;;;;;;;18.75;14.95;;;11.40;99.90;;;;;;5040902;28;20868;-34
2023/04/22 06:44:08;;;;;;;20.50;15.88;;;11.30;99.90;;;;;;5043036;28;20025;-34
2023/04/22 06:46:34;;;;;;;19.63;15.60;;;11.30;99.90;;;;;;5042189;28;20048;-33
2023/04/22 06:49:00;;;;;;;21.65;16.27;;;11.30;99.90;;;;;;5043185;28;20174;-35
2023/04/22 06:51:25;;;;;;;21.20;16.88;;;11.30;99.90;;;;;;5042861;28;20080;-35
2023/04/22 06:53:51;;;;;;;19.13;15.65;;;11.30;99.90;;;;;;5043465;28;20133;-36
2023/04/22 06:56:16;;;;;;;16.98;14.80;;;11.30;99.90;;;;;;5043294;28;20037;-33
2023/04/22 06:58:42;;;;;;;16.88;14.85;;;11.30;99.90;;;;;;5042093;28;20498;-35
2023/04/22 07:01:07;;;;;;;17.23;14.38;;;11.40;99.90;;;;;;5041985;28;20803;-35
2023/04/22 07:03:33;;;;;;;17.50;15.55;;;11.40;99.90;;;;;;5042569;28;20075;-34
2023/04/22 07:05:59;;;;;;;17.67;14.88;;;11.50;99.90;;;;;;5041461;28;20139;-36
2023/04/22 07:08:24;;;;;;;17.17;14.65;;;11.50;99.90;;;;;;5043457;28;20024;-35
2023/04/22 07:10:50;;;;;;;17.02;14.32;;;11.60;99.90;;;;;;5043139;28;20037;-36
2023/04/22 07:13:15;;;;;;;17.20;14.27;;;11.70;99.90;;;;;;5042783;28;20060;-34
2023/04/22 07:15:41;;;;;;;17.00;14.55;;;11.80;99.90;;;;;;5043188;28;20053;-35
2023/04/22 07:18:06;;;;;;;15.73;13.75;;;11.90;99.90;;;;;;5042718;28;20013;-34
2023/04/22 07:20:35;;;;;;;16.20;13.68;;;12.00;99.90;;;;;;5042419;28;20037;-35
2023/04/22 07:23:01;;;;;;;16.05;13.88;;;12.10;99.90;;;;;;5043297;28;20028;-35
2023/04/22 07:25:26;;;;;;;15.32;13.52;;;12.20;99.90;;;;;;5043982;28;20456;-35
2023/04/22 07:27:52;;;;;;;16.13;13.50;;;12.30;99.90;;;;;;5043016;28;20471;-35
2023/04/22 07:30:17;;;;;;;14.98;13.32;;;12.40;99.90;;;;;;5042749;28;20074;-35
2023/04/22 07:32:43;;;;;;;15.48;13.25;;;12.50;99.90;;;;;;5042688;28;20029;-35
2023/04/22 07:35:08;;;;;;;14.07;12.25;;;12.70;99.90;;;;;;5041725;28;20024;-33
2023/04/22 07:37:34;;;;;;;13.80;11.73;;;12.80;99.90;;;;;;5042481;28;20021;-35
2023/04/22 07:40:00;;;;;;;15.18;12.32;;;12.90;99.90;;;;;;5042140;28;21017;-36
2023/04/22 07:42:25;;;;;;;14.70;11.93;;;13.10;99.90;;;;;;5042845;28;20043;-34
2023/04/22 07:44:51;;;;;;;13.18;11.77;;;13.20;99.90;;;;;;5042412;28;20056;-35
2023/04/22 07:47:17;;;;;;;13.73;11.75;;;13.20;99.90;;;;;;5042685;28;20387;-35
2023/04/22 07:49:44;;;;;;;14.00;11.25;;;13.20;99.90;;;;;;5042104;28;20471;-35
2023/04/22 07:52:09;;;;;;;14.57;11.73;;;13.20;99.90;;;;;;5042612;28;20040;-34
2023/04/22 07:54:35;;;;;;;15.73;12.20;;;13.30;99.90;;;;;;5040597;28;20032;-35
2023/04/22 07:57:00;;;;;;;12.82;11.52;;;13.30;99.90;;;;;;5042691;28;20064;-34
2023/04/22 07:59:26;;;;;;;13.93;11.77;;;13.30;99.90;;;;;;5042920;28;20035;-34
2023/04/22 08:01:52;;;;;;;12.20;10.98;;;13.30;99.90;;;;;;5042019;28;20052;-34
2023/04/22 08:04:18;;;;;;;15.95;11.18;;;13.30;99.90;;;;;;5041847;28;20021;-34
2023/04/22 08:06:44;;;;;;;11.73;10.13;;;13.30;99.90;;;;;;5041432;28;20119;-34
2023/04/22 08:09:09;;;;;;;12.23;10.07;;;13.30;99.90;;;;;;5040866;28;20914;-35
2023/04/22 08:11:38;;;;;;;10.93;9.80;;;13.30;99.90;;;;;;5041040;28;21212;-33
2023/04/22 08:14:03;;;;;;;10.48;9.38;;;13.30;99.90;;;;;;5042422;28;20036;-37
2023/04/22 08:16:29;;;;;;;9.98;8.98;;;13.40;99.90;;;;;;5042051;28;20021;-34
2023/04/22 08:18:56;;;;;;;10.20;9.15;;;13.40;99.90;;;;;;5042166;28;20124;-35
2023/04/22 08:21:22;;;;;;;8.77;7.88;;;13.40;99.90;;;;;;5042306;28;20956;-34
2023/04/22 08:23:47;;;;;;;9.93;8.93;;;13.40;99.90;;;;;;5041841;28;20548;-35
2023/04/22 08:26:15;;;;;;;9.57;8.68;;;13.50;99.90;;;;;;5042109;28;20106;-33
2023/04/22 08:28:41;;;;;;;9.93;8.85;;;13.60;99.90;;;;;;5042358;28;20108;-34
2023/04/22 08:31:09;;;;;;;10.65;8.50;;;13.70;99.90;;;;;;5040883;28;20045;-33
2023/04/22 08:33:34;;;;;;;8.98;8.07;;;13.80;99.90;;;;;;5041603;28;20427;-34
2023/04/22 08:36:03;;;;;;;7.90;7.10;;;14.00;99.90;;;;;;5040764;28;20036;-36
2023/04/22 08:38:28;;;;;;;9.02;8.13;;;14.10;99.90;;;;;;5042308;28;20025;-35
2023/04/22 08:40:57;;;;;;;9.30;8.40;;;14.30;99.90;;;;;;5041194;28;20035;-34
2023/04/22 08:43:25;;;;;;;8.77;7.90;;;14.40;99.90;;;;;;5042148;28;20146;-35
2023/04/22 08:45:51;;;;;;;9.00;7.75;;;14.60;99.90;;;;;;5042047;28;20017;-34
2023/04/22 08:48:18;;;;;;;11.70;9.13;;;14.80;99.90;;;;;;5041937;28;20079;-34
2023/04/22 08:50:45;;;;;;;8.88;7.90;;;14.90;99.90;;;;;;5041503;28;20041;-34
2023/04/22 08:53:11;;;;;;;8.70;7.40;;;15.00;99.90;;;;;;5041455;28;20064;-34
2023/04/22 08:55:37;;;;;;;8.50;7.63;;;15.10;99.90;;;;;;5041454;28;20132;-34
2023/04/22 08:58:04;;;;;;;10.00;7.28;;;15.10;99.90;;;;;;5041155;28;20514;-34
2023/04/22 09:00:31;;;;;;;9.95;7.70;;;15.10;99.90;;;;;;5041497;28;20047;-34
2023/04/22 09:02:59;;;;;;;9.10;7.35;;;15.10;99.90;;;;;;5041500;28;20029;-34
2023/04/22 09:05:26;;;;;;;8.98;7.65;;;15.10;99.90;;;;;;5039743;28;20025;-35
2023/04/22 09:07:53;;;;;;;8.48;7.55;;;15.10;99.90;;;;;;5040953;28;20450;-34
2023/04/22 09:10:19;;;;;;;7.53;6.70;;;15.20;99.90;;;;;;5041896;28;20017;-34
2023/04/22 09:12:45;;;;;;;9.20;7.78;;;15.30;99.90;;;;;;5040737;28;20062;-34
2023/04/22 09:15:14;;;;;;;9.85;7.05;;;15.30;99.90;;;;;;5041586;28;20025;-34
2023/04/22 09:17:40;;;;;;;7.28;6.45;;;15.30;99.90;;;;;;5041004;28;20029;-34
2023/04/22 09:20:07;;;;;;;8.13;6.00;;;15.30;99.90;;;;;;5041129;28;20036;-36
2023/04/22 09:22:42;;;;;;;6.75;6.15;;;15.30;99.90;;;;;;5041396;28;20028;-35
2023/04/22 09:25:24;;;;;;;8.20;7.40;;;15.40;99.90;;;;;;5041222;28;20376;-34
2023/04/22 09:27:51;;;;;;;;;;;15.50;99.90;;;;;;5041001;28;20498;-34
2023/04/22 09:30:25;;;;;;;8.65;6.70;;;15.50;99.90;;;;;;5041332;28;19917;-35
2023/04/22 09:32:56;;;;;;;7.18;6.47;;;15.60;99.90;;;;;;5040636;28;20835;-34
2023/04/22 09:35:31;;;;;;;7.25;6.55;;;15.60;99.90;;;;;;5041782;28;20036;-35
2023/04/22 09:37:58;;;;;;;7.28;6.47;;;15.60;99.90;;;;;;5041283;28;20025;-34
2023/04/22 09:40:25;;;;;;;7.90;7.10;;;15.60;99.90;;;;;;5041226;28;20632;-36
2023/04/22 09:42:55;;;;;;;6.25;5.65;;;15.70;99.90;;;;;;5040703;28;20808;-36
2023/04/22 09:45:31;;;;;;;7.53;6.80;;;15.70;99.90;;;;;;5040595;28;20517;-34
2023/04/22 09:48:02;;;;;;;7.32;6.45;;;15.80;99.90;;;;;;5040443;28;20520;-34
2023/04/22 09:50:28;;;;;;;7.65;6.57;;;15.90;99.90;;;;;;5040327;28;20071;-34
2023/04/22 09:53:01;;;;;;;7.68;6.03;;;16.00;99.90;;;;;;5040610;28;20021;-33
2023/04/22 09:55:29;;;;;;;6.25;5.60;;;16.00;99.90;;;;;;5040733;28;20025;-34
2023/04/22 09:57:56;;;;;;;5.25;4.75;;;16.10;99.90;;;;;;5041015;28;20108;-34
2023/04/22 10:00:28;;;;;;;7.82;7.03;;;16.20;99.90;;;;;;5041477;28;20115;-34
2023/04/22 10:02:54;;;;;;;7.45;6.45;;;16.30;99.90;;;;;;5041413;28;20497;-34
2023/04/22 10:05:20;;;;;;;6.45;5.88;;;16.50;99.90;;;;;;5039043;28;20032;-34
2023/04/22 10:07:45;;;;;;;6.75;6.03;;;16.70;99.90;;;;;;5041629;28;20028;-34
2023/04/22 10:10:12;;;;;;;6.68;6.00;;;16.90;99.90;;;;;;5040855;28;20025;-34
2023/04/22 10:12:38;;;;;;;6.15;5.55;;;17.00;99.90;;;;;;5040608;28;20056;-34
2023/04/22 10:15:05;;;;;;;6.45;5.85;;;17.10;99.90;;;;;;5040028;28;20017;-35
2023/04/22 10:17:37;;;;;;;6.53;5.82;;;17.10;99.90;;;;;;5045312;28;20778;-33
2023/04/22 10:20:12;;;;;;;6.70;6.03;;;17.10;99.90;;;;;;5047069;28;20032;-34
2023/04/22 10:22:38;;;;;;;7.35;5.88;;;17.10;99.90;;;;;;5027739;28;20049;-36
2023/04/22 10:25:04;;;;;;;7.20;6.50;;;17.10;99.90;;;;;;5040499;28;20032;-35
2023/04/22 10:27:30;;;;;;;7.63;5.85;;;17.10;99.90;;;;;;5047485;28;20025;-35
2023/04/22 10:29:56;;;;;;;6.03;5.43;;;17.10;99.90;;;;;;5046676;28;20094;-37
2023/04/22 10:32:26;;;;;;;5.68;4.93;;;17.20;99.90;;;;;;5047051;28;20110;-34
2023/04/22 10:35:08;;;;;;;5.07;4.60;;;17.30;99.90;;;;;;5046590;28;20025;-34
2023/04/22 10:37:33;;;;;;;6.97;5.50;;;17.40;99.90;;;;;;5047548;28;20090;-35
2023/04/22 10:40:15;;;;;;;4.72;3.90;;;17.50;99.90;;;;;;5047318;28;20801;-33
2023/04/22 10:42:46;;;;;;;5.15;4.72;;;17.70;99.90;;;;;;5047429;28;20476;-34
2023/04/22 10:45:13;;;;;;;5.47;4.97;;;17.90;99.90;;;;;;5047919;28;20029;-34
2023/04/22 10:47:42;;;;;;;5.10;4.60;;;18.00;99.90;;;;;;5047139;28;20555;-35
2023/04/22 10:50:10;;;;;;;5.47;4.97;;;18.10;99.90;;;;;;5045640;28;20045;-34
2023/04/22 10:52:36;;;;;;;6.97;6.35;;;18.10;99.90;;;;;;5047439;28;20047;-35
2023/04/22 10:55:02;;;;;;;7.25;6.55;;;18.10;99.90;;;;;;5047186;28;20021;-35
2023/04/22 10:57:36;;;;;;;6.80;6.15;;;18.20;99.90;;;;;;5046706;28;20510;-36
2023/04/22 11:00:26;;;;;;;7.43;6.72;;;18.10;99.90;;;;;;5044469;28;20075;-35
2023/04/22 11:03:05;;;;;;;6.95;6.25;;;18.10;99.90;;;;;;5038630;28;20029;-35
2023/04/22 11:05:31;;;;;;;8.20;6.57;;;18.10;99.90;;;;;;5046443;28;20606;-35
2023/04/22 11:08:05;;;;;;;7.82;5.78;;;18.00;99.90;;;;;;5045946;28;20033;-35
2023/04/22 11:10:42;;;;;;;7.15;6.45;;;18.10;99.90;;;;;;5047003;28;20078;-36
2023/04/22 11:13:20;;;;;;;6.95;5.93;;;18.10;99.90;;;;;;5036630;28;20028;-35
2023/04/22 11:15:48;;;;;;;6.35;5.75;;;18.20;99.90;;;;;;5046058;28;20463;-35
2023/04/22 11:18:22;;;;;;;5.65;5.07;;;18.30;99.90;;;;;;5044225;28;20056;-35
2023/04/22 11:20:49;;;;;;;7.88;5.50;;;18.50;99.90;;;;;;5045116;28;20056;-36
2023/04/22 11:23:24;;;;;;;8.05;6.50;;;18.60;99.90;;;;;;5046155;28;20075;-35
2023/04/22 11:25:56;;;;;;;8.13;6.63;;;18.80;99.90;;;;;;5045749;28;20032;-38
2023/04/22 11:28:23;;;;;;;6.80;6.10;;;19.00;99.90;;;;;;5044454;28;20033;-35
2023/04/22 11:30:49;;;;;;;7.30;5.05;;;19.20;99.90;;;;;;5043389;28;20765;-36
2023/04/22 11:33:15;;;;;;;7.22;6.53;;;19.40;99.90;;;;;;5040285;28;20032;-35
2023/04/22 11:35:41;;;;;;;7.22;5.88;;;19.40;99.90;;;;;;5043771;28;20017;-37
2023/04/22 11:38:07;;;;;;;5.80;5.20;;;19.40;99.90;;;;;;5042861;28;20025;-35
2023/04/22 11:40:44;;;;;;;5.45;4.95;;;19.40;99.90;;;;;;5043069;28;20150;-35
2023/04/22 11:43:10;;;;;;;6.13;5.53;;;19.40;99.90;;;;;;5042226;28;20029;-35
2023/04/22 11:45:37;;;;;;;5.60;4.93;;;19.40;99.90;;;;;;5043387;28;20029;-35
2023/04/22 11:48:05;;;;;;;5.28;4.82;;;19.40;99.90;;;;;;5042515;28;20416;-35
2023/04/22 11:50:40;;;;;;;5.25;4.55;;;19.30;99.90;;;;;;5042563;28;20045;-36
2023/04/22 11:53:18;;;;;;;6.78;5.13;;;19.20;99.90;;;;;;5042171;28;20040;-36
2023/04/22 11:55:46;;;;;;;5.55;4.25;;;19.10;99.90;;;;;;5023103;28;20033;-35
2023/04/22 11:58:26;;;;;;;5.43;4.05;;;18.90;99.90;;;;;;5038079;28;20032;-36
2023/04/22 12:00:53;;;;;;;4.28;3.60;;;18.80;99.90;;;;;;5043107;28;20428;-35
2023/04/22 12:03:21;;;;;;;4.50;4.10;;;18.70;99.90;;;;;;5042293;28;20029;-35
2023/04/22 12:05:56;;;;;;;5.05;4.45;;;18.60;99.90;;;;;;5042991;28;20626;-35
2023/04/22 12:08:50;;;;;;;4.93;4.28;;;18.50;99.90;;;;;;5042855;28;20029;-37
2023/04/22 12:11:24;;;;;;;6.30;4.75;;;18.40;99.90;;;;;;5022635;28;20049;-35
2023/04/22 12:13:50;;;;;;;5.03;4.55;;;18.30;99.90;;;;;;5037728;28;20025;-36
2023/04/22 12:16:19;;;;;;;5.50;4.97;;;18.20;99.90;;;;;;5042307;28;20052;-34
2023/04/22 12:18:54;;;;;;;4.53;4.05;;;18.20;99.90;;;;;;5041528;28;20151;-35
2023/04/22 12:21:27;;;;;;;6.03;4.93;;;18.10;99.90;;;;;;5042833;28;20024;-35
2023/04/22 12:23:59;;;;;;;6.03;5.40;;;18.00;99.90;;;;;;5042645;28;20112;-36
2023/04/22 12:26:25;;;;;;;6.20;5.40;;;17.90;99.90;;;;;;5042734;28;20037;-35
2023/04/22 12:28:52;;;;;;;5.95;5.35;;;17.90;99.90;;;;;;5041992;28;20868;-34
2023/04/22 12:31:20;;;;;;;5.68;5.18;;;17.90;99.90;;;;;;5043016;28;20047;-35
2023/04/22 12:33:46;;;;;;;7.82;5.38;;;17.90;99.90;;;;;;5043298;28;20023;-35
2023/04/22 12:36:12;;;;;;;5.47;4.97;;;17.80;99.90;;;;;;5042593;28;20028;-36
2023/04/22 12:38:38;;;;;;;5.90;5.32;;;17.80;99.90;;;;;;5042650;28;20047;-35
2023/04/22 12:41:05;;;;;;;5.70;5.07;;;17.70;99.90;;;;;;5042513;28;20136;-36
2023/04/22 12:43:34;;;;;;;5.65;4.97;;;17.70;99.90;;;;;;5041229;28;20516;-35